createdAt,value
2022-07-28T00:00:22.904Z,51.212234
2022-07-28T00:01:22.845Z,51.212227
2022-07-28T00:02:23.018Z,51.212078
2022-07-28T00:03:22.901Z,51.212109
2022-07-28T00:04:22.850Z,51.212170
2022-07-28T00:05:22.905Z,51.212067
2022-07-28T00:06:22.853Z,51.212006
2022-07-28T00:07:22.867Z,51.212109
2022-07-28T00:08:22.850Z,51.212158
2022-07-28T00:09:22.830Z,51.212109
2022-07-28T00:10:22.810Z,51.212070
2022-07-28T00:11:22.797Z,51.212234
2022-07-28T00:12:22.786Z,51.212162
2022-07-28T00:13:22.833Z,51.212093
2022-07-28T00:14:22.765Z,51.212181
2022-07-28T00:15:22.869Z,51.212154
2022-07-28T00:16:22.793Z,51.212204
2022-07-28T00:17:22.757Z,51.212196
2022-07-28T00:18:22.753Z,51.212078
2022-07-28T00:19:22.737Z,51.212189
2022-07-28T00:20:22.733Z,51.212292
2022-07-28T00:21:22.712Z,51.212307
2022-07-28T00:22:22.725Z,51.212170
2022-07-28T00:23:22.753Z,51.212254
2022-07-28T00:24:23.727Z,51.212341
2022-07-28T00:25:22.689Z,51.212215
2022-07-28T00:26:22.703Z,51.212208
2022-07-28T00:27:22.660Z,51.212147
2022-07-28T00:28:22.686Z,51.212154
2022-07-28T00:29:22.676Z,51.212292
2022-07-28T00:30:22.687Z,51.212399
2022-07-28T00:31:22.719Z,51.212326
2022-07-28T00:32:22.640Z,51.212254
2022-07-28T00:33:22.642Z,51.212318
2022-07-28T00:34:22.652Z,51.212311
2022-07-28T00:35:30.215Z,51.212505
2022-07-28T00:36:24.616Z,51.212406
2022-07-28T00:37:22.604Z,51.212250
2022-07-28T00:38:23.364Z,51.212280
2022-07-28T00:39:22.608Z,51.212257
2022-07-28T00:40:23.585Z,51.212292
2022-07-28T00:41:22.576Z,51.212322
2022-07-28T00:42:22.567Z,51.212368
2022-07-28T00:43:22.603Z,51.212322
2022-07-28T00:44:22.569Z,51.212238
2022-07-28T00:45:22.556Z,51.212105
2022-07-28T00:46:22.607Z,51.212132
2022-07-28T00:47:22.559Z,51.212185
2022-07-28T00:48:22.573Z,51.212261
2022-07-28T00:49:22.620Z,51.212105
2022-07-28T00:50:22.536Z,51.212200
2022-07-28T00:51:22.536Z,51.212299
2022-07-28T00:52:22.503Z,51.212299
2022-07-28T00:53:22.510Z,51.212326
2022-07-28T00:54:22.483Z,51.212135
2022-07-28T00:55:23.366Z,51.212063
2022-07-28T00:56:22.474Z,51.212067
2022-07-28T00:57:22.502Z,51.212090
2022-07-28T00:58:22.571Z,51.212105
2022-07-28T00:59:22.576Z,51.212200
2022-07-28T01:00:22.466Z,51.212223
2022-07-28T01:01:22.479Z,51.211922
2022-07-28T01:02:22.551Z,51.212143
2022-07-28T01:03:22.434Z,51.211941
2022-07-28T01:04:22.439Z,51.212132
2022-07-28T01:05:43.353Z,51.212055
2022-07-28T01:06:23.510Z,51.212025
2022-07-28T01:07:22.395Z,51.211891
2022-07-28T01:08:23.410Z,51.211967
2022-07-28T01:09:23.331Z,51.211899
2022-07-28T01:10:22.382Z,51.212017
2022-07-28T01:11:22.430Z,51.212124
2022-07-28T01:12:22.372Z,51.212051
2022-07-28T01:13:22.358Z,51.212143
2022-07-28T01:14:22.387Z,51.212219
2022-07-28T01:15:22.392Z,51.212254
2022-07-28T01:16:22.627Z,51.212196
2022-07-28T01:17:22.366Z,51.211987
2022-07-28T01:18:22.326Z,51.212185
2022-07-28T01:19:22.329Z,51.212032
2022-07-28T01:20:22.310Z,51.211823
2022-07-28T01:21:22.322Z,51.212067
2022-07-28T01:22:22.342Z,51.212391
2022-07-28T01:23:22.313Z,51.212173
2022-07-28T01:24:22.294Z,51.212063
2022-07-28T01:25:22.305Z,51.211926
2022-07-28T01:26:22.298Z,51.212044
2022-07-28T01:27:22.258Z,51.212173
2022-07-28T01:28:22.307Z,51.211918
2022-07-28T01:29:22.293Z,51.212029
2022-07-28T01:30:22.234Z,51.211903
2022-07-28T01:31:23.316Z,51.212101
2022-07-28T01:32:22.266Z,51.212185
2022-07-28T01:33:22.241Z,51.212261
2022-07-28T01:34:22.212Z,51.212147
2022-07-28T01:35:22.207Z,51.212269
2022-07-28T01:36:22.218Z,51.212284
2022-07-28T01:37:22.240Z,51.212090
2022-07-28T01:38:22.185Z,51.212204
2022-07-28T01:39:22.178Z,51.212250
2022-07-28T01:40:22.309Z,51.212307
2022-07-28T01:41:22.158Z,51.212257
2022-07-28T01:42:22.178Z,51.212269
2022-07-28T01:43:22.176Z,51.212078
2022-07-28T01:44:22.147Z,51.212185
2022-07-28T01:45:22.202Z,51.212299
2022-07-28T01:46:22.176Z,51.212051
2022-07-28T01:47:22.138Z,51.212246
2022-07-28T01:48:22.138Z,51.212162
2022-07-28T01:49:22.154Z,51.212204
2022-07-28T01:50:22.125Z,51.212101
2022-07-28T01:51:22.122Z,51.212246
2022-07-28T01:52:22.093Z,51.212044
2022-07-28T01:53:22.106Z,51.212017
2022-07-28T01:54:22.102Z,51.212059
2022-07-28T01:55:22.110Z,51.212055
2022-07-28T01:56:22.082Z,51.212139
2022-07-28T01:57:22.050Z,51.212105
2022-07-28T01:58:22.120Z,51.211926
2022-07-28T01:59:22.690Z,51.212017
2022-07-28T02:00:22.075Z,51.212269
2022-07-28T02:01:22.091Z,51.212364
2022-07-28T02:02:22.018Z,51.212254
2022-07-28T02:03:22.014Z,51.212147
2022-07-28T02:04:22.062Z,51.212147
2022-07-28T02:05:22.236Z,51.212070
2022-07-28T02:06:21.990Z,51.212219
2022-07-28T02:07:21.976Z,51.212181
2022-07-28T02:08:22.010Z,51.212101
2022-07-28T02:09:22.010Z,51.212280
2022-07-28T02:10:22.009Z,51.212269
2022-07-28T02:11:21.962Z,51.212234
2022-07-28T02:12:21.969Z,51.212250
2022-07-28T02:13:21.938Z,51.212265
2022-07-28T02:14:21.938Z,51.212246
2022-07-28T02:15:22.014Z,51.212215
2022-07-28T02:16:21.993Z,51.212299
2022-07-28T02:17:21.937Z,51.212288
2022-07-28T02:18:21.934Z,51.212215
2022-07-28T02:19:21.971Z,51.212238
2022-07-28T02:20:21.926Z,51.212269
2022-07-28T02:21:21.923Z,51.212322
2022-07-28T02:22:21.883Z,51.212257
2022-07-28T02:23:21.915Z,51.212128
2022-07-28T02:24:21.899Z,51.212147
2022-07-28T02:25:21.897Z,51.212189
2022-07-28T02:26:21.872Z,51.212219
2022-07-28T02:27:21.847Z,51.212193
2022-07-28T02:28:21.870Z,51.212196
2022-07-28T02:29:48.077Z,51.212234
2022-07-28T02:30:23.841Z,51.212254
2022-07-28T02:31:21.963Z,51.212238
2022-07-28T02:32:27.018Z,51.212177
2022-07-28T02:33:33.085Z,51.212135
2022-07-28T02:34:26.315Z,51.212170
2022-07-28T02:35:22.791Z,51.212109
2022-07-28T02:36:21.807Z,51.212151
2022-07-28T02:37:21.794Z,51.212261
2022-07-28T02:38:21.771Z,51.212280
2022-07-28T02:39:21.773Z,51.212307
2022-07-28T02:40:21.754Z,51.212231
2022-07-28T02:41:21.788Z,51.212330
2022-07-28T02:42:21.775Z,51.212269
2022-07-28T02:43:21.739Z,51.212147
2022-07-28T02:44:21.728Z,51.212173
2022-07-28T02:45:22.388Z,51.212116
2022-07-28T02:46:21.759Z,51.212135
2022-07-28T02:47:21.732Z,51.212044
2022-07-28T02:48:21.729Z,51.212040
2022-07-28T02:49:21.789Z,51.212070
2022-07-28T02:50:21.860Z,51.212124
2022-07-28T02:51:21.698Z,51.212070
2022-07-28T02:52:21.692Z,51.212093
2022-07-28T02:53:21.709Z,51.212105
2022-07-28T02:54:21.699Z,51.212170
2022-07-28T02:55:21.649Z,51.212246
2022-07-28T02:56:21.666Z,51.212246
2022-07-28T02:57:21.657Z,51.212204
2022-07-28T02:58:21.646Z,51.212196
2022-07-28T02:59:21.677Z,51.212204
2022-07-28T03:00:21.621Z,51.212181
2022-07-28T03:01:21.684Z,51.212200
2022-07-28T03:02:21.619Z,51.212189
2022-07-28T03:03:21.629Z,51.212223
2022-07-28T03:04:21.594Z,51.212242
2022-07-28T03:05:21.930Z,51.212234
2022-07-28T03:06:26.644Z,51.212200
2022-07-28T03:07:22.573Z,51.212212
2022-07-28T03:08:21.553Z,51.212219
2022-07-28T03:09:21.664Z,51.212219
2022-07-28T03:10:34.090Z,51.212173
2022-07-28T03:11:22.562Z,51.212177
2022-07-28T03:12:21.537Z,51.212189
2022-07-28T03:13:21.546Z,51.212231
2022-07-28T03:14:21.530Z,51.212139
2022-07-28T03:15:21.542Z,51.212093
2022-07-28T03:16:22.831Z,51.212124
2022-07-28T03:17:21.583Z,51.212154
2022-07-28T03:18:21.542Z,51.212143
2022-07-28T03:19:22.321Z,51.212231
2022-07-28T03:20:21.510Z,51.212223
2022-07-28T03:21:21.494Z,51.212063
2022-07-28T03:22:21.469Z,51.211945
2022-07-28T03:23:21.497Z,51.211910
2022-07-28T03:24:23.266Z,51.211838
2022-07-28T03:25:21.469Z,51.211933
2022-07-28T03:26:21.460Z,51.212051
2022-07-28T03:27:21.441Z,51.212021
2022-07-28T03:28:21.465Z,51.212078
2022-07-28T03:29:21.439Z,51.211990
2022-07-28T03:30:21.431Z,51.212002
2022-07-28T03:31:21.451Z,51.211994
2022-07-28T03:32:21.421Z,51.212021
2022-07-28T03:33:21.412Z,51.212048
2022-07-28T03:34:21.452Z,51.212021
2022-07-28T03:35:21.407Z,51.211952
2022-07-28T03:36:21.389Z,51.211987
2022-07-28T03:37:21.389Z,51.212070
2022-07-28T03:38:22.419Z,51.212032
2022-07-28T03:39:21.411Z,51.211945
2022-07-28T03:40:21.399Z,51.212070
2022-07-28T03:41:21.374Z,51.212147
2022-07-28T03:42:21.367Z,51.211681
2022-07-28T03:43:21.397Z,51.212009
2022-07-28T03:44:28.802Z,51.211918
2022-07-28T03:45:22.376Z,51.211918
2022-07-28T03:46:22.326Z,51.211723
2022-07-28T03:47:21.321Z,51.211651
2022-07-28T03:48:21.297Z,51.211945
2022-07-28T03:49:21.405Z,51.212193
2022-07-28T03:50:21.316Z,51.211849
2022-07-28T03:51:21.319Z,51.212025
2022-07-28T03:52:21.292Z,51.211880
2022-07-28T03:53:21.285Z,51.212105
2022-07-28T03:54:21.262Z,51.212170
2022-07-28T03:55:21.266Z,51.212158
2022-07-28T03:56:21.309Z,51.212105
2022-07-28T03:57:21.242Z,51.211967
2022-07-28T03:58:21.250Z,51.211983
2022-07-28T03:59:22.308Z,51.212063
2022-07-28T04:00:21.261Z,51.212200
2022-07-28T04:01:21.289Z,51.212196
2022-07-28T04:02:21.336Z,51.212002
2022-07-28T04:03:35.663Z,51.211845
2022-07-28T04:04:22.204Z,51.211857
2022-07-28T04:05:21.194Z,51.211838
2022-07-28T04:06:21.196Z,51.211864
2022-07-28T04:07:21.191Z,51.211918
2022-07-28T04:08:22.179Z,51.211910
2022-07-28T04:09:21.168Z,51.211842
2022-07-28T04:10:21.167Z,51.211880
2022-07-28T04:11:21.153Z,51.211910
2022-07-28T04:12:21.174Z,51.211845
2022-07-28T04:13:21.137Z,51.212021
2022-07-28T04:14:21.452Z,51.212036
2022-07-28T04:15:21.130Z,51.212299
2022-07-28T04:16:22.401Z,51.212116
2022-07-28T04:17:21.147Z,51.212166
2022-07-28T04:18:21.124Z,51.211975
2022-07-28T04:19:21.133Z,51.212025
2022-07-28T04:20:21.092Z,51.211834
2022-07-28T04:21:21.802Z,51.211918
2022-07-28T04:22:21.128Z,51.212109
2022-07-28T04:23:21.083Z,51.212284
2022-07-28T04:24:21.061Z,51.212265
2022-07-28T04:25:21.060Z,51.212112
2022-07-28T04:26:21.679Z,51.212059
2022-07-28T04:27:21.080Z,51.212086
2022-07-28T04:28:21.056Z,51.212078
2022-07-28T04:29:23.350Z,51.212151
2022-07-28T04:30:22.128Z,51.212116
2022-07-28T04:31:21.143Z,51.212109
2022-07-28T04:32:21.017Z,51.212162
2022-07-28T04:33:21.003Z,51.212128
2022-07-28T04:34:21.061Z,51.212128
2022-07-28T04:35:20.991Z,51.212116
2022-07-28T04:36:20.990Z,51.212101
2022-07-28T04:37:20.976Z,51.212090
2022-07-28T04:38:21.034Z,51.212109
2022-07-28T04:39:20.980Z,51.212139
2022-07-28T04:40:21.020Z,51.212254
2022-07-28T04:41:20.977Z,51.212196
2022-07-28T04:42:20.954Z,51.212212
2022-07-28T04:43:22.940Z,51.212269
2022-07-28T04:44:20.929Z,51.211952
2022-07-28T04:45:20.916Z,51.212051
2022-07-28T04:46:20.975Z,51.212132
2022-07-28T04:47:20.929Z,51.212143
2022-07-28T04:48:20.900Z,51.212105
2022-07-28T04:49:21.434Z,51.211845
2022-07-28T04:50:20.902Z,51.211903
2022-07-28T04:51:20.918Z,51.211971
2022-07-28T04:52:20.877Z,51.211987
2022-07-28T04:53:20.880Z,51.212067
2022-07-28T04:54:26.036Z,51.212040
2022-07-28T04:55:22.850Z,51.212082
2022-07-28T04:56:20.875Z,51.212025
2022-07-28T04:57:20.887Z,51.211956
2022-07-28T04:58:21.178Z,51.212173
2022-07-28T04:59:20.844Z,51.212143
2022-07-28T05:00:22.876Z,51.212128
2022-07-28T05:01:20.851Z,51.212139
2022-07-28T05:02:20.784Z,51.212078
2022-07-28T05:03:20.802Z,51.211838
2022-07-28T05:04:20.806Z,51.211998
2022-07-28T05:05:20.778Z,51.212055
2022-07-28T05:06:20.795Z,51.212017
2022-07-28T05:07:20.796Z,51.212189
2022-07-28T05:08:20.813Z,51.211689
2022-07-28T05:09:20.763Z,51.212006
2022-07-28T05:10:20.744Z,51.212002
2022-07-28T05:11:20.756Z,51.212082
2022-07-28T05:12:20.744Z,51.211784
2022-07-28T05:13:20.731Z,51.211903
2022-07-28T05:14:20.712Z,51.211773
2022-07-28T05:15:20.756Z,51.211834
2022-07-28T05:16:20.759Z,51.211971
2022-07-28T05:17:20.714Z,51.212154
2022-07-28T05:18:20.725Z,51.211895
2022-07-28T05:19:20.780Z,51.211727
2022-07-28T05:20:20.685Z,51.211918
2022-07-28T05:21:22.596Z,51.211838
2022-07-28T05:22:20.658Z,51.212067
2022-07-28T05:23:20.674Z,51.211975
2022-07-28T05:24:20.681Z,51.211842
2022-07-28T05:25:20.722Z,51.211803
2022-07-28T05:26:20.666Z,51.211735
2022-07-28T05:27:20.646Z,51.211613
2022-07-28T05:28:20.678Z,51.212013
2022-07-28T05:29:21.301Z,51.211983
2022-07-28T05:30:20.665Z,51.212040
2022-07-28T05:31:20.653Z,51.211922
2022-07-28T05:32:20.667Z,51.211903
2022-07-28T05:33:20.602Z,51.212025
2022-07-28T05:34:20.620Z,51.211914
2022-07-28T05:35:20.615Z,51.211948
2022-07-28T05:36:20.574Z,51.211998
2022-07-28T05:37:20.574Z,51.212116
2022-07-28T05:38:20.555Z,51.212051
2022-07-28T05:39:20.580Z,51.212078
2022-07-28T05:40:20.567Z,51.212063
2022-07-28T05:41:20.535Z,51.212002
2022-07-28T05:42:20.569Z,51.211941
2022-07-28T05:43:20.515Z,51.211964
2022-07-28T05:44:20.565Z,51.212002
2022-07-28T05:45:20.565Z,51.212162
2022-07-28T05:46:20.554Z,51.212166
2022-07-28T05:47:20.511Z,51.212162
2022-07-28T05:48:20.570Z,51.212349
2022-07-28T05:49:20.548Z,51.212299
2022-07-28T05:50:20.496Z,51.212078
2022-07-28T05:51:20.491Z,51.212101
2022-07-28T05:52:20.553Z,51.212082
2022-07-28T05:53:20.477Z,51.212063
2022-07-28T05:54:20.459Z,51.212063
2022-07-28T05:55:20.503Z,51.212021
2022-07-28T05:56:20.480Z,51.212097
2022-07-28T05:57:20.465Z,51.212101
2022-07-28T05:58:20.437Z,51.212154
2022-07-28T05:59:20.444Z,51.212189
2022-07-28T06:00:20.447Z,51.212090
2022-07-28T06:01:20.503Z,51.212124
2022-07-28T06:02:20.464Z,51.212036
2022-07-28T06:03:20.417Z,51.212124
2022-07-28T06:04:28.334Z,51.212132
2022-07-28T06:05:22.432Z,51.212067
2022-07-28T06:06:20.438Z,51.212105
2022-07-28T06:07:20.394Z,51.212067
2022-07-28T06:08:20.445Z,51.212090
2022-07-28T06:09:20.373Z,51.212097
2022-07-28T06:10:20.387Z,51.212158
2022-07-28T06:11:22.806Z,51.212234
2022-07-28T06:12:20.448Z,51.212208
2022-07-28T06:13:20.349Z,51.212158
2022-07-28T06:14:20.361Z,51.212143
2022-07-28T06:15:20.379Z,51.212120
2022-07-28T06:16:20.386Z,51.212112
2022-07-28T06:17:20.337Z,51.212082
2022-07-28T06:18:20.337Z,51.212063
2022-07-28T06:19:20.383Z,51.212044
2022-07-28T06:20:20.318Z,51.212112
2022-07-28T06:21:20.387Z,51.212204
2022-07-28T06:22:20.315Z,51.212170
2022-07-28T06:23:20.280Z,51.212120
2022-07-28T06:24:20.305Z,51.212154
2022-07-28T06:25:20.280Z,51.212059
2022-07-28T06:26:20.267Z,51.212093
2022-07-28T06:27:20.272Z,51.212086
2022-07-28T06:28:20.274Z,51.212051
2022-07-28T06:29:20.315Z,51.212093
2022-07-28T06:30:20.250Z,51.212147
2022-07-28T06:31:20.386Z,51.212078
2022-07-28T06:32:20.238Z,51.212067
2022-07-28T06:33:20.255Z,51.211998
2022-07-28T06:34:20.240Z,51.211967
2022-07-28T06:35:20.265Z,51.212105
2022-07-28T06:36:20.212Z,51.212120
2022-07-28T06:37:20.232Z,51.212093
2022-07-28T06:38:20.242Z,51.211998
2022-07-28T06:39:20.222Z,51.211994
2022-07-28T06:40:20.227Z,51.211853
2022-07-28T06:41:20.205Z,51.211952
2022-07-28T06:42:20.191Z,51.212055
2022-07-28T06:43:20.164Z,51.211941
2022-07-28T06:44:20.530Z,51.211880
2022-07-28T06:45:21.250Z,51.212070
2022-07-28T06:46:20.322Z,51.212074
2022-07-28T06:47:20.253Z,51.212170
2022-07-28T06:48:20.161Z,51.212002
2022-07-28T06:49:20.373Z,51.211979
2022-07-28T06:50:24.988Z,51.211838
2022-07-28T06:51:21.176Z,51.212002
2022-07-28T06:52:20.132Z,51.211941
2022-07-28T06:53:20.123Z,51.212170
2022-07-28T06:54:20.138Z,51.212029
2022-07-28T06:55:20.123Z,51.212006
2022-07-28T06:56:21.494Z,51.211952
2022-07-28T06:57:20.093Z,51.211998
2022-07-28T06:58:20.116Z,51.211960
2022-07-28T06:59:20.785Z,51.211716
2022-07-28T07:00:21.122Z,51.211975
2022-07-28T07:01:20.148Z,51.211880
2022-07-28T07:02:22.844Z,51.212029
2022-07-28T07:03:20.046Z,51.212093
2022-07-28T07:04:20.058Z,51.212238
2022-07-28T07:05:20.089Z,51.212055
2022-07-28T07:06:20.865Z,51.212036
2022-07-28T07:07:20.033Z,51.211948
2022-07-28T07:08:19.991Z,51.212074
2022-07-28T07:09:20.033Z,51.211777
2022-07-28T07:10:19.988Z,51.211849
2022-07-28T07:11:19.990Z,51.211967
2022-07-28T07:12:19.979Z,51.212078
2022-07-28T07:13:19.967Z,51.211830
2022-07-28T07:14:20.029Z,51.211994
2022-07-28T07:15:20.017Z,51.211884
2022-07-28T07:16:19.966Z,51.212059
2022-07-28T07:17:20.010Z,51.211876
2022-07-28T07:18:19.987Z,51.212021
2022-07-28T07:19:19.941Z,51.212082
2022-07-28T07:20:19.917Z,51.212029
2022-07-28T07:21:20.021Z,51.211933
2022-07-28T07:22:19.965Z,51.211945
2022-07-28T07:23:19.953Z,51.211971
2022-07-28T07:24:20.809Z,51.212109
2022-07-28T07:25:19.895Z,51.212116
2022-07-28T07:26:20.077Z,51.212090
2022-07-28T07:27:19.861Z,51.212025
2022-07-28T07:28:19.906Z,51.211979
2022-07-28T07:29:20.770Z,51.211964
2022-07-28T07:30:19.890Z,51.212036
2022-07-28T07:31:19.898Z,51.212112
2022-07-28T07:32:19.835Z,51.212082
2022-07-28T07:33:19.868Z,51.212002
2022-07-28T07:34:19.807Z,51.212074
2022-07-28T07:35:19.819Z,51.212093
2022-07-28T07:36:20.815Z,51.212067
2022-07-28T07:37:19.804Z,51.212112
2022-07-28T07:38:19.807Z,51.212246
2022-07-28T07:39:19.897Z,51.212173
2022-07-28T07:40:19.805Z,51.212112
2022-07-28T07:41:20.065Z,51.212040
2022-07-28T07:42:19.764Z,51.212139
2022-07-28T07:43:20.823Z,51.212067
2022-07-28T07:44:19.755Z,51.212093
2022-07-28T07:45:19.775Z,51.212090
2022-07-28T07:46:19.833Z,51.212093
2022-07-28T07:47:19.794Z,51.212086
2022-07-28T07:48:19.770Z,51.212078
2022-07-28T07:49:20.075Z,51.212025
2022-07-28T07:50:19.716Z,51.212090
2022-07-28T07:51:19.719Z,51.212086
2022-07-28T07:52:19.721Z,51.212040
2022-07-28T07:53:19.799Z,51.212112
2022-07-28T07:54:19.733Z,51.212097
2022-07-28T07:55:19.755Z,51.212139
2022-07-28T07:56:19.699Z,51.212044
2022-07-28T07:57:19.750Z,51.212021
2022-07-28T07:58:20.099Z,51.212101
2022-07-28T07:59:19.735Z,51.212063
2022-07-28T08:00:28.036Z,51.212044
2022-07-28T08:01:20.758Z,51.212200
2022-07-28T08:02:19.650Z,51.212345
2022-07-28T08:03:22.416Z,51.212345
2022-07-28T08:04:19.736Z,51.212097
2022-07-28T08:05:20.687Z,51.212135
2022-07-28T08:06:26.480Z,51.212025
2022-07-28T08:07:22.129Z,51.212036
2022-07-28T08:08:19.637Z,51.212078
2022-07-28T08:09:20.345Z,51.212124
2022-07-28T08:10:19.585Z,51.212177
2022-07-28T08:11:19.595Z,51.212177
2022-07-28T08:12:25.144Z,51.212181
2022-07-28T08:13:20.642Z,51.212112
2022-07-28T08:14:19.557Z,51.212063
2022-07-28T08:15:19.582Z,51.212036
2022-07-28T08:16:19.600Z,51.212048
2022-07-28T08:17:23.635Z,51.212101
2022-07-28T08:18:21.538Z,51.212147
2022-07-28T08:19:21.486Z,51.212040
2022-07-28T08:20:19.588Z,51.212090
2022-07-28T08:21:19.501Z,51.212032
2022-07-28T08:22:19.505Z,51.212086
2022-07-28T08:23:24.309Z,51.212151
2022-07-28T08:24:32.561Z,51.212070
2022-07-28T08:25:20.515Z,51.212074
2022-07-28T08:26:19.484Z,51.212002
2022-07-28T08:27:19.465Z,51.212040
2022-07-28T08:28:19.471Z,51.212086
2022-07-28T08:29:19.530Z,51.212158
2022-07-28T08:30:21.706Z,51.212132
2022-07-28T08:31:19.459Z,51.212021
2022-07-28T08:32:20.459Z,51.211990
2022-07-28T08:33:19.448Z,51.212078
2022-07-28T08:34:31.717Z,51.212166
2022-07-28T08:35:33.010Z,51.212185
2022-07-28T08:36:22.386Z,51.212200
2022-07-28T08:37:19.410Z,51.212074
2022-07-28T08:38:19.406Z,51.212132
2022-07-28T08:39:19.426Z,51.212166
2022-07-28T08:40:20.373Z,51.212090
2022-07-28T08:41:19.390Z,51.212116
2022-07-28T08:42:19.408Z,51.212128
2022-07-28T08:43:19.365Z,51.212097
2022-07-28T08:44:19.376Z,51.212093
2022-07-28T08:45:19.369Z,51.212093
2022-07-28T08:46:19.379Z,51.212082
2022-07-28T08:47:19.363Z,51.212070
2022-07-28T08:48:19.364Z,51.212059
2022-07-28T08:49:19.414Z,51.212063
2022-07-28T08:50:19.385Z,51.212139
2022-07-28T08:51:19.367Z,51.212120
2022-07-28T08:52:19.377Z,51.212097
2022-07-28T08:53:19.323Z,51.212097
2022-07-28T08:54:19.351Z,51.212139
2022-07-28T08:55:19.833Z,51.212151
2022-07-28T08:56:20.341Z,51.212154
2022-07-28T08:57:19.331Z,51.212151
2022-07-28T08:58:19.434Z,51.212185
2022-07-28T08:59:19.341Z,51.212177
2022-07-28T09:00:19.295Z,51.212143
2022-07-28T09:01:19.280Z,51.212166
2022-07-28T09:02:19.422Z,51.212147
2022-07-28T09:03:20.319Z,51.212032
2022-07-28T09:04:19.237Z,51.212093
2022-07-28T09:05:19.234Z,51.212105
2022-07-28T09:06:19.222Z,51.212093
2022-07-28T09:07:19.295Z,51.212097
2022-07-28T09:08:19.234Z,51.212143
2022-07-28T09:09:19.244Z,51.212116
2022-07-28T09:10:19.223Z,51.212090
2022-07-28T09:11:19.189Z,51.212132
2022-07-28T09:12:19.201Z,51.212116
2022-07-28T09:13:20.235Z,51.212093
2022-07-28T09:14:19.169Z,51.212166
2022-07-28T09:15:19.156Z,51.212143
2022-07-28T09:16:19.193Z,51.212132
2022-07-28T09:17:19.218Z,51.212158
2022-07-28T09:18:19.138Z,51.212112
2022-07-28T09:19:19.189Z,51.212090
2022-07-28T09:20:19.138Z,51.212185
2022-07-28T09:21:19.169Z,51.212154
2022-07-28T09:22:19.110Z,51.212166
2022-07-28T09:23:41.798Z,51.212173
2022-07-28T09:24:20.112Z,51.212189
2022-07-28T09:25:19.100Z,51.212158
2022-07-28T09:26:19.123Z,51.212162
2022-07-28T09:27:19.121Z,51.212147
2022-07-28T09:28:20.392Z,51.212128
2022-07-28T09:29:19.073Z,51.212120
2022-07-28T09:30:19.178Z,51.212185
2022-07-28T09:31:19.197Z,51.212234
2022-07-28T09:32:19.079Z,51.212246
2022-07-28T09:33:41.932Z,51.212280
2022-07-28T09:34:20.090Z,51.212219
2022-07-28T09:35:19.059Z,51.212196
2022-07-28T09:36:19.865Z,51.212185
2022-07-28T09:37:23.346Z,51.212185
2022-07-28T09:38:21.077Z,51.212185
2022-07-28T09:39:19.051Z,51.212208
2022-07-28T09:40:22.389Z,51.212166
2022-07-28T09:41:19.176Z,51.212158
2022-07-28T09:42:19.022Z,51.212132
2022-07-28T09:43:19.050Z,51.212135
2022-07-28T09:44:19.034Z,51.212059
2022-07-28T09:45:23.766Z,51.212078
2022-07-28T09:46:21.180Z,51.212109
2022-07-28T09:47:19.071Z,51.212128
2022-07-28T09:48:19.235Z,51.212128
2022-07-28T09:49:19.122Z,51.212181
2022-07-28T09:50:18.990Z,51.212025
2022-07-28T09:51:18.978Z,51.212090
2022-07-28T09:52:18.971Z,51.212292
2022-07-28T09:53:18.971Z,51.212193
2022-07-28T09:54:19.499Z,51.212082
2022-07-28T09:55:18.952Z,51.211864
2022-07-28T09:56:19.877Z,51.211975
2022-07-28T09:57:18.947Z,51.211926
2022-07-28T09:58:18.934Z,51.212032
2022-07-28T09:59:18.943Z,51.212044
2022-07-28T10:00:18.954Z,51.211960
2022-07-28T10:01:18.975Z,51.211906
2022-07-28T10:02:19.042Z,51.211864
2022-07-28T10:03:18.984Z,51.211967
2022-07-28T10:04:19.418Z,51.211880
2022-07-28T10:05:18.904Z,51.212173
2022-07-28T10:06:18.881Z,51.211956
2022-07-28T10:07:18.899Z,51.212040
2022-07-28T10:08:18.888Z,51.211998
2022-07-28T10:09:19.395Z,51.211994
2022-07-28T10:10:18.890Z,51.212006
2022-07-28T10:11:18.856Z,51.212044
2022-07-28T10:12:18.861Z,51.211987
2022-07-28T10:13:18.853Z,51.211994
2022-07-28T10:14:18.877Z,51.212078
2022-07-28T10:15:19.832Z,51.212036
2022-07-28T10:16:19.879Z,51.212135
2022-07-28T10:17:18.813Z,51.212128
2022-07-28T10:18:18.862Z,51.211823
2022-07-28T10:19:19.849Z,51.211987
2022-07-28T10:20:18.796Z,51.211975
2022-07-28T10:21:18.820Z,51.212021
2022-07-28T10:22:18.789Z,51.212025
2022-07-28T10:23:18.770Z,51.212086
2022-07-28T10:24:18.802Z,51.212162
2022-07-28T10:25:18.778Z,51.212017
2022-07-28T10:26:18.791Z,51.212112
2022-07-28T10:27:18.751Z,51.212017
2022-07-28T10:28:18.739Z,51.212082
2022-07-28T10:29:18.793Z,51.212070
2022-07-28T10:30:18.755Z,51.212074
2022-07-28T10:31:18.895Z,51.212070
2022-07-28T10:32:18.700Z,51.212009
2022-07-28T10:33:18.702Z,51.212070
2022-07-28T10:34:19.006Z,51.212059
2022-07-28T10:35:19.784Z,51.212040
2022-07-28T10:36:18.699Z,51.212013
2022-07-28T10:37:18.692Z,51.212086
2022-07-28T10:38:18.748Z,51.211975
2022-07-28T10:39:18.674Z,51.212162
2022-07-28T10:40:18.651Z,51.211960
2022-07-28T10:41:18.658Z,51.212132
2022-07-28T10:42:18.645Z,51.212143
2022-07-28T10:43:18.669Z,51.212116
2022-07-28T10:44:18.915Z,51.212212
2022-07-28T10:45:18.608Z,51.212200
2022-07-28T10:46:18.687Z,51.212162
2022-07-28T10:47:19.837Z,51.212208
2022-07-28T10:48:18.597Z,51.212193
2022-07-28T10:49:18.755Z,51.212173
2022-07-28T10:50:18.602Z,51.212234
2022-07-28T10:51:18.609Z,51.212189
2022-07-28T10:53:20.585Z,51.212109
2022-07-28T10:54:18.681Z,51.212082
2022-07-28T10:55:20.268Z,51.212158
2022-07-28T10:56:18.880Z,51.212284
2022-07-28T10:57:18.854Z,51.212280
2022-07-28T10:58:18.554Z,51.212185
2022-07-28T10:59:18.539Z,51.212101
2022-07-28T11:00:25.943Z,51.212093
2022-07-28T11:01:46.396Z,51.212135
2022-07-28T11:02:20.624Z,51.212055
2022-07-28T11:03:18.612Z,51.212017
2022-07-28T11:04:18.541Z,51.212170
2022-07-28T11:05:18.558Z,51.212158
2022-07-28T11:06:18.529Z,51.212208
2022-07-28T11:07:18.509Z,51.212185
2022-07-28T11:08:18.490Z,51.212151
2022-07-28T11:09:18.584Z,51.212330
2022-07-28T11:10:18.490Z,51.212280
2022-07-28T11:11:18.461Z,51.212242
2022-07-28T11:12:18.478Z,51.212215
2022-07-28T11:13:18.465Z,51.212189
2022-07-28T11:14:18.515Z,51.212280
2022-07-28T11:15:19.195Z,51.212173
2022-07-28T11:16:18.545Z,51.212116
2022-07-28T11:17:23.960Z,51.212170
2022-07-28T11:18:19.418Z,51.212368
2022-07-28T11:19:36.862Z,51.212292
2022-07-28T11:20:29.519Z,51.212429
2022-07-28T11:21:20.413Z,51.212322
2022-07-28T11:22:18.622Z,51.212124
2022-07-28T11:23:18.417Z,51.212212
2022-07-28T11:24:18.553Z,51.212193
2022-07-28T11:25:21.875Z,51.212238